sensor_id;sensor_type;location;lat;lon;timestamp;temperature;humidity
13606;DHT22;6874;52.084;5.090;2024-02-21T00:00:54;9.10;99.90
13606;DHT22;6874;52.084;5.090;2024-02-21T00:03:20;9.10;99.90
13606;DHT22;6874;52.084;5.090;2024-02-21T00:05:45;9.10;99.90
13606;DHT22;6874;52.084;5.090;2024-02-21T00:08:11;9.00;99.90
13606;DHT22;6874;52.084;5.090;2024-02-21T00:10:37;9.10;99.90
13606;DHT22;6874;52.084;5.090;2024-02-21T00:13:02;9.00;99.90
13606;DHT22;6874;52.084;5.090;2024-02-21T00:15:28;9.00;99.90
13606;DHT22;6874;52.084;5.090;2024-02-21T00:17:54;9.10;99.90
13606;DHT22;6874;52.084;5.090;2024-02-21T00:20:19;9.00;99.90
13606;DHT22;6874;52.084;5.090;2024-02-21T00:22:45;9.00;99.90
13606;DHT22;6874;52.084;5.090;2024-02-21T00:25:11;9.00;99.90
13606;DHT22;6874;52.084;5.090;2024-02-21T00:27:37;9.00;99.90
13606;DHT22;6874;52.084;5.090;2024-02-21T00:30:03;9.00;99.90
13606;DHT22;6874;52.084;5.090;2024-02-21T00:32:29;9.00;99.90
13606;DHT22;6874;52.084;5.090;2024-02-21T00:34:54;9.10;99.90
13606;DHT22;6874;52.084;5.090;2024-02-21T00:37:20;9.00;99.90
13606;DHT22;6874;52.084;5.090;2024-02-21T00:39:45;9.00;99.90
13606;DHT22;6874;52.084;5.090;2024-02-21T00:42:11;9.00;99.90
13606;DHT22;6874;52.084;5.090;2024-02-21T00:44:36;9.00;99.90
13606;DHT22;6874;52.084;5.090;2024-02-21T00:47:02;9.00;99.90
13606;DHT22;6874;52.084;5.090;2024-02-21T00:49:28;9.00;99.90
13606;DHT22;6874;52.084;5.090;2024-02-21T00:51:53;9.00;99.90
13606;DHT22;6874;52.084;5.090;2024-02-21T00:54:19;9.00;99.90
13606;DHT22;6874;52.084;5.090;2024-02-21T00:56:44;9.00;99.90
13606;DHT22;6874;52.084;5.090;2024-02-21T00:59:10;9.00;99.90
13606;DHT22;6874;52.084;5.090;2024-02-21T01:01:35;9.00;99.90
13606;DHT22;6874;52.084;5.090;2024-02-21T01:04:01;9.00;99.90
13606;DHT22;6874;52.084;5.090;2024-02-21T01:06:26;9.00;99.90
13606;DHT22;6874;52.084;5.090;2024-02-21T01:08:52;9.00;99.90
13606;DHT22;6874;52.084;5.090;2024-02-21T01:11:17;9.00;99.90
13606;DHT22;6874;52.084;5.090;2024-02-21T01:13:44;9.00;99.90
13606;DHT22;6874;52.084;5.090;2024-02-21T01:16:09;9.00;99.90
13606;DHT22;6874;52.084;5.090;2024-02-21T01:18:37;9.10;99.90
13606;DHT22;6874;52.084;5.090;2024-02-21T01:21:03;9.00;99.90
13606;DHT22;6874;52.084;5.090;2024-02-21T01:23:35;9.00;99.90
13606;DHT22;6874;52.084;5.090;2024-02-21T01:26:01;9.00;99.90
13606;DHT22;6874;52.084;5.090;2024-02-21T01:28:26;9.00;99.90
13606;DHT22;6874;52.084;5.090;2024-02-21T01:30:52;9.00;99.90
13606;DHT22;6874;52.084;5.090;2024-02-21T01:33:17;9.10;99.90
13606;DHT22;6874;52.084;5.090;2024-02-21T01:35:44;9.10;99.90
13606;DHT22;6874;52.084;5.090;2024-02-21T01:38:09;9.00;99.90
13606;DHT22;6874;52.084;5.090;2024-02-21T01:40:36;9.00;99.90
13606;DHT22;6874;52.084;5.090;2024-02-21T01:43:02;9.00;99.90
13606;DHT22;6874;52.084;5.090;2024-02-21T01:45:28;9.10;99.90
13606;DHT22;6874;52.084;5.090;2024-02-21T01:47:54;9.10;99.90
13606;DHT22;6874;52.084;5.090;2024-02-21T01:50:19;9.00;99.90
13606;DHT22;6874;52.084;5.090;2024-02-21T01:52:49;9.10;99.90
13606;DHT22;6874;52.084;5.090;2024-02-21T01:55:16;9.10;99.90
13606;DHT22;6874;52.084;5.090;2024-02-21T01:57:43;9.10;99.90
13606;DHT22;6874;52.084;5.090;2024-02-21T02:00:13;9.00;99.90
13606;DHT22;6874;52.084;5.090;2024-02-21T02:02:39;9.00;99.90
13606;DHT22;6874;52.084;5.090;2024-02-21T02:05:06;9.10;99.90
13606;DHT22;6874;52.084;5.090;2024-02-21T02:07:32;9.10;99.90
13606;DHT22;6874;52.084;5.090;2024-02-21T02:09:58;9.00;99.90
13606;DHT22;6874;52.084;5.090;2024-02-21T02:12:24;9.00;99.90
13606;DHT22;6874;52.084;5.090;2024-02-21T02:15:02;9.00;99.90
13606;DHT22;6874;52.084;5.090;2024-02-21T02:17:32;9.00;99.90
13606;DHT22;6874;52.084;5.090;2024-02-21T02:19:57;9.00;99.90
13606;DHT22;6874;52.084;5.090;2024-02-21T02:22:30;9.10;99.90
13606;DHT22;6874;52.084;5.090;2024-02-21T02:24:57;9.10;99.90
13606;DHT22;6874;52.084;5.090;2024-02-21T02:27:23;9.10;99.90
13606;DHT22;6874;52.084;5.090;2024-02-21T02:29:49;9.10;99.90
13606;DHT22;6874;52.084;5.090;2024-02-21T02:32:15;9.10;99.90
13606;DHT22;6874;52.084;5.090;2024-02-21T02:34:41;9.10;99.90
13606;DHT22;6874;52.084;5.090;2024-02-21T02:37:06;9.00;99.90
13606;DHT22;6874;52.084;5.090;2024-02-21T02:39:32;9.00;99.90
13606;DHT22;6874;52.084;5.090;2024-02-21T02:41:57;9.10;99.90
13606;DHT22;6874;52.084;5.090;2024-02-21T02:44:23;9.00;99.90
13606;DHT22;6874;52.084;5.090;2024-02-21T02:46:49;9.10;99.90
13606;DHT22;6874;52.084;5.090;2024-02-21T02:49:14;9.10;99.90
13606;DHT22;6874;52.084;5.090;2024-02-21T02:51:44;9.10;99.90
13606;DHT22;6874;52.084;5.090;2024-02-21T02:54:10;9.00;99.90
13606;DHT22;6874;52.084;5.090;2024-02-21T02:56:35;9.00;99.90
13606;DHT22;6874;52.084;5.090;2024-02-21T02:59:01;9.00;99.90
13606;DHT22;6874;52.084;5.090;2024-02-21T03:01:26;9.00;99.90
13606;DHT22;6874;52.084;5.090;2024-02-21T03:03:52;9.00;99.90
13606;DHT22;6874;52.084;5.090;2024-02-21T03:06:18;9.00;99.90
13606;DHT22;6874;52.084;5.090;2024-02-21T03:08:44;9.00;99.90
13606;DHT22;6874;52.084;5.090;2024-02-21T03:11:10;9.00;99.90
13606;DHT22;6874;52.084;5.090;2024-02-21T03:13:36;9.10;99.90
13606;DHT22;6874;52.084;5.090;2024-02-21T03:16:02;9.00;99.90
13606;DHT22;6874;52.084;5.090;2024-02-21T03:18:27;9.00;99.90
13606;DHT22;6874;52.084;5.090;2024-02-21T03:20:53;9.00;99.90
13606;DHT22;6874;52.084;5.090;2024-02-21T03:23:18;9.00;99.90
13606;DHT22;6874;52.084;5.090;2024-02-21T03:25:44;9.00;99.90
13606;DHT22;6874;52.084;5.090;2024-02-21T03:28:09;9.00;99.90
13606;DHT22;6874;52.084;5.090;2024-02-21T03:30:35;9.00;99.90
13606;DHT22;6874;52.084;5.090;2024-02-21T03:33:00;9.00;99.90
13606;DHT22;6874;52.084;5.090;2024-02-21T03:35:26;9.00;99.90
13606;DHT22;6874;52.084;5.090;2024-02-21T03:37:53;9.00;99.90
13606;DHT22;6874;52.084;5.090;2024-02-21T03:40:18;9.10;99.90
13606;DHT22;6874;52.084;5.090;2024-02-21T03:42:44;9.00;99.90
13606;DHT22;6874;52.084;5.090;2024-02-21T03:45:09;9.00;99.90
13606;DHT22;6874;52.084;5.090;2024-02-21T03:47:35;9.00;99.90
13606;DHT22;6874;52.084;5.090;2024-02-21T03:50:01;9.00;99.90
13606;DHT22;6874;52.084;5.090;2024-02-21T03:52:26;9.00;99.90
13606;DHT22;6874;52.084;5.090;2024-02-21T03:54:52;9.00;99.90
13606;DHT22;6874;52.084;5.090;2024-02-21T03:57:17;9.10;99.90
13606;DHT22;6874;52.084;5.090;2024-02-21T03:59:43;9.00;99.90
13606;DHT22;6874;52.084;5.090;2024-02-21T04:02:08;9.00;99.90
13606;DHT22;6874;52.084;5.090;2024-02-21T04:04:37;9.00;99.90
13606;DHT22;6874;52.084;5.090;2024-02-21T04:07:03;9.00;99.90
13606;DHT22;6874;52.084;5.090;2024-02-21T04:09:33;9.00;99.90
13606;DHT22;6874;52.084;5.090;2024-02-21T04:12:00;9.00;99.90
13606;DHT22;6874;52.084;5.090;2024-02-21T04:14:26;9.00;99.90
13606;DHT22;6874;52.084;5.090;2024-02-21T04:16:52;9.00;99.90
13606;DHT22;6874;52.084;5.090;2024-02-21T04:19:17;8.90;99.90
13606;DHT22;6874;52.084;5.090;2024-02-21T04:21:43;9.00;99.90
13606;DHT22;6874;52.084;5.090;2024-02-21T04:24:08;9.00;99.90
13606;DHT22;6874;52.084;5.090;2024-02-21T04:26:34;9.00;99.90
13606;DHT22;6874;52.084;5.090;2024-02-21T04:29:00;9.00;99.90
13606;DHT22;6874;52.084;5.090;2024-02-21T04:31:25;9.00;99.90
13606;DHT22;6874;52.084;5.090;2024-02-21T04:33:51;9.00;99.90
13606;DHT22;6874;52.084;5.090;2024-02-21T04:36:17;9.00;99.90
13606;DHT22;6874;52.084;5.090;2024-02-21T04:38:42;9.00;99.90
13606;DHT22;6874;52.084;5.090;2024-02-21T04:41:08;9.00;99.90
13606;DHT22;6874;52.084;5.090;2024-02-21T04:43:33;9.00;99.90
13606;DHT22;6874;52.084;5.090;2024-02-21T04:45:59;9.00;99.90
13606;DHT22;6874;52.084;5.090;2024-02-21T04:48:25;9.00;99.90
13606;DHT22;6874;52.084;5.090;2024-02-21T04:50:51;9.00;99.90
13606;DHT22;6874;52.084;5.090;2024-02-21T04:53:17;9.00;99.90
13606;DHT22;6874;52.084;5.090;2024-02-21T04:55:42;8.90;99.90
13606;DHT22;6874;52.084;5.090;2024-02-21T04:58:08;9.00;99.90
13606;DHT22;6874;52.084;5.090;2024-02-21T05:00:34;8.90;99.90
13606;DHT22;6874;52.084;5.090;2024-02-21T05:02:59;9.00;99.90
13606;DHT22;6874;52.084;5.090;2024-02-21T05:05:25;9.00;99.90
13606;DHT22;6874;52.084;5.090;2024-02-21T05:07:50;8.90;99.90
13606;DHT22;6874;52.084;5.090;2024-02-21T05:10:16;9.00;99.90
13606;DHT22;6874;52.084;5.090;2024-02-21T05:12:43;9.00;99.90
13606;DHT22;6874;52.084;5.090;2024-02-21T05:15:08;9.00;99.90
13606;DHT22;6874;52.084;5.090;2024-02-21T05:17:34;9.00;99.90
13606;DHT22;6874;52.084;5.090;2024-02-21T05:19:59;9.00;99.90
13606;DHT22;6874;52.084;5.090;2024-02-21T05:22:25;8.90;99.90
13606;DHT22;6874;52.084;5.090;2024-02-21T05:24:50;8.90;99.90
13606;DHT22;6874;52.084;5.090;2024-02-21T05:27:16;8.90;99.90
13606;DHT22;6874;52.084;5.090;2024-02-21T05:29:41;8.90;99.90
13606;DHT22;6874;52.084;5.090;2024-02-21T05:32:07;9.00;99.90
13606;DHT22;6874;52.084;5.090;2024-02-21T05:34:33;8.90;99.90
13606;DHT22;6874;52.084;5.090;2024-02-21T05:36:58;9.00;99.90
13606;DHT22;6874;52.084;5.090;2024-02-21T05:39:25;9.00;99.90
13606;DHT22;6874;52.084;5.090;2024-02-21T05:41:51;8.90;99.90
13606;DHT22;6874;52.084;5.090;2024-02-21T05:44:16;8.90;99.90
13606;DHT22;6874;52.084;5.090;2024-02-21T05:46:42;8.90;99.90
13606;DHT22;6874;52.084;5.090;2024-02-21T05:49:08;9.00;99.90
13606;DHT22;6874;52.084;5.090;2024-02-21T05:51:34;8.90;99.90
13606;DHT22;6874;52.084;5.090;2024-02-21T05:54:00;8.90;99.90
13606;DHT22;6874;52.084;5.090;2024-02-21T05:56:26;9.00;99.90
13606;DHT22;6874;52.084;5.090;2024-02-21T05:58:51;8.90;99.90
13606;DHT22;6874;52.084;5.090;2024-02-21T06:01:17;8.90;99.90
13606;DHT22;6874;52.084;5.090;2024-02-21T06:03:43;8.90;99.90
13606;DHT22;6874;52.084;5.090;2024-02-21T06:06:09;8.90;99.90
13606;DHT22;6874;52.084;5.090;2024-02-21T06:08:34;8.90;99.90
13606;DHT22;6874;52.084;5.090;2024-02-21T06:11:00;8.90;99.90
13606;DHT22;6874;52.084;5.090;2024-02-21T06:13:26;8.90;99.90
13606;DHT22;6874;52.084;5.090;2024-02-21T06:15:51;8.90;99.90
13606;DHT22;6874;52.084;5.090;2024-02-21T06:18:18;8.90;99.90
13606;DHT22;6874;52.084;5.090;2024-02-21T06:20:44;8.90;99.90
13606;DHT22;6874;52.084;5.090;2024-02-21T06:23:11;8.90;99.90
13606;DHT22;6874;52.084;5.090;2024-02-21T06:25:37;8.90;99.90
13606;DHT22;6874;52.084;5.090;2024-02-21T06:28:03;8.90;99.90
13606;DHT22;6874;52.084;5.090;2024-02-21T06:30:28;8.90;99.90
13606;DHT22;6874;52.084;5.090;2024-02-21T06:32:54;8.90;99.90
13606;DHT22;6874;52.084;5.090;2024-02-21T06:35:22;8.90;99.90
13606;DHT22;6874;52.084;5.090;2024-02-21T06:37:51;8.90;99.90
13606;DHT22;6874;52.084;5.090;2024-02-21T06:40:20;8.90;99.90
13606;DHT22;6874;52.084;5.090;2024-02-21T06:42:46;8.90;99.90
13606;DHT22;6874;52.084;5.090;2024-02-21T06:45:11;8.90;99.90
13606;DHT22;6874;52.084;5.090;2024-02-21T06:47:37;9.00;99.90
13606;DHT22;6874;52.084;5.090;2024-02-21T06:50:03;8.90;99.90
13606;DHT22;6874;52.084;5.090;2024-02-21T06:52:28;8.90;99.90
13606;DHT22;6874;52.084;5.090;2024-02-21T06:54:54;8.90;99.90
13606;DHT22;6874;52.084;5.090;2024-02-21T06:57:19;8.90;99.90
13606;DHT22;6874;52.084;5.090;2024-02-21T06:59:45;8.90;99.90
13606;DHT22;6874;52.084;5.090;2024-02-21T07:02:10;8.90;99.90
13606;DHT22;6874;52.084;5.090;2024-02-21T07:04:36;8.90;99.90
13606;DHT22;6874;52.084;5.090;2024-02-21T07:07:01;8.90;99.90
13606;DHT22;6874;52.084;5.090;2024-02-21T07:09:27;8.90;99.90
13606;DHT22;6874;52.084;5.090;2024-02-21T07:11:54;8.90;99.90
13606;DHT22;6874;52.084;5.090;2024-02-21T07:14:19;8.90;99.90
13606;DHT22;6874;52.084;5.090;2024-02-21T07:16:45;8.90;99.90
13606;DHT22;6874;52.084;5.090;2024-02-21T07:19:11;8.90;99.90
13606;DHT22;6874;52.084;5.090;2024-02-21T07:21:36;8.90;99.90
13606;DHT22;6874;52.084;5.090;2024-02-21T07:24:04;8.90;99.90
13606;DHT22;6874;52.084;5.090;2024-02-21T07:26:31;8.90;99.90
13606;DHT22;6874;52.084;5.090;2024-02-21T07:28:56;8.90;99.90
13606;DHT22;6874;52.084;5.090;2024-02-21T07:31:22;8.90;99.90
13606;DHT22;6874;52.084;5.090;2024-02-21T07:33:47;8.90;99.90
13606;DHT22;6874;52.084;5.090;2024-02-21T07:36:15;8.90;99.90
13606;DHT22;6874;52.084;5.090;2024-02-21T07:38:41;8.90;99.90
13606;DHT22;6874;52.084;5.090;2024-02-21T07:41:07;8.90;99.90
13606;DHT22;6874;52.084;5.090;2024-02-21T07:43:32;8.90;99.90
13606;DHT22;6874;52.084;5.090;2024-02-21T07:45:58;8.80;99.90
13606;DHT22;6874;52.084;5.090;2024-02-21T07:48:23;8.90;99.90
13606;DHT22;6874;52.084;5.090;2024-02-21T07:50:52;8.90;99.90
13606;DHT22;6874;52.084;5.090;2024-02-21T07:53:18;8.90;99.90
13606;DHT22;6874;52.084;5.090;2024-02-21T07:55:43;8.90;99.90
13606;DHT22;6874;52.084;5.090;2024-02-21T07:58:09;8.90;99.90
13606;DHT22;6874;52.084;5.090;2024-02-21T08:00:34;8.90;99.90
13606;DHT22;6874;52.084;5.090;2024-02-21T08:03:00;8.90;99.90
13606;DHT22;6874;52.084;5.090;2024-02-21T08:05:25;8.90;99.90
13606;DHT22;6874;52.084;5.090;2024-02-21T08:07:51;8.90;99.90
13606;DHT22;6874;52.084;5.090;2024-02-21T08:10:16;8.90;99.90
13606;DHT22;6874;52.084;5.090;2024-02-21T08:12:42;8.90;99.90
13606;DHT22;6874;52.084;5.090;2024-02-21T08:15:08;8.90;99.90
13606;DHT22;6874;52.084;5.090;2024-02-21T08:17:36;8.90;99.90
13606;DHT22;6874;52.084;5.090;2024-02-21T08:20:02;8.90;99.90
13606;DHT22;6874;52.084;5.090;2024-02-21T08:22:28;8.90;99.90
13606;DHT22;6874;52.084;5.090;2024-02-21T08:24:53;9.00;99.90
13606;DHT22;6874;52.084;5.090;2024-02-21T08:27:19;8.90;99.90
13606;DHT22;6874;52.084;5.090;2024-02-21T08:29:45;9.00;99.90
13606;DHT22;6874;52.084;5.090;2024-02-21T08:32:10;9.00;99.90
13606;DHT22;6874;52.084;5.090;2024-02-21T08:34:36;9.00;99.90
13606;DHT22;6874;52.084;5.090;2024-02-21T08:37:01;9.00;99.90
13606;DHT22;6874;52.084;5.090;2024-02-21T08:39:27;9.00;99.90
13606;DHT22;6874;52.084;5.090;2024-02-21T08:41:54;9.00;99.90
13606;DHT22;6874;52.084;5.090;2024-02-21T08:44:21;9.00;99.90
13606;DHT22;6874;52.084;5.090;2024-02-21T08:46:47;9.00;99.90
13606;DHT22;6874;52.084;5.090;2024-02-21T08:49:12;9.00;99.90
13606;DHT22;6874;52.084;5.090;2024-02-21T08:51:39;9.00;99.90
13606;DHT22;6874;52.084;5.090;2024-02-21T08:54:04;9.10;99.90
13606;DHT22;6874;52.084;5.090;2024-02-21T08:56:30;9.10;99.90
13606;DHT22;6874;52.084;5.090;2024-02-21T08:58:56;9.10;99.90
13606;DHT22;6874;52.084;5.090;2024-02-21T09:01:23;9.10;99.90
13606;DHT22;6874;52.084;5.090;2024-02-21T09:03:48;9.10;99.90
13606;DHT22;6874;52.084;5.090;2024-02-21T09:06:19;9.10;99.90
13606;DHT22;6874;52.084;5.090;2024-02-21T09:08:45;9.10;99.90
13606;DHT22;6874;52.084;5.090;2024-02-21T09:11:11;9.10;99.90
13606;DHT22;6874;52.084;5.090;2024-02-21T09:13:36;9.10;99.90
13606;DHT22;6874;52.084;5.090;2024-02-21T09:16:02;9.10;99.90
13606;DHT22;6874;52.084;5.090;2024-02-21T09:18:28;9.20;99.90
13606;DHT22;6874;52.084;5.090;2024-02-21T09:20:54;9.20;99.90
13606;DHT22;6874;52.084;5.090;2024-02-21T09:23:20;9.20;99.90
13606;DHT22;6874;52.084;5.090;2024-02-21T09:25:45;9.20;99.90
13606;DHT22;6874;52.084;5.090;2024-02-21T09:28:11;9.20;99.90
13606;DHT22;6874;52.084;5.090;2024-02-21T09:30:38;9.20;99.90
13606;DHT22;6874;52.084;5.090;2024-02-21T09:33:04;9.20;99.90
13606;DHT22;6874;52.084;5.090;2024-02-21T09:35:30;9.20;99.90
13606;DHT22;6874;52.084;5.090;2024-02-21T09:37:56;9.20;99.90
13606;DHT22;6874;52.084;5.090;2024-02-21T09:40:22;9.30;99.90
13606;DHT22;6874;52.084;5.090;2024-02-21T09:42:48;9.30;99.90
13606;DHT22;6874;52.084;5.090;2024-02-21T09:45:21;9.30;99.90
13606;DHT22;6874;52.084;5.090;2024-02-21T09:50:24;9.30;99.90
13606;DHT22;6874;52.084;5.090;2024-02-21T09:52:52;9.30;99.90
13606;DHT22;6874;52.084;5.090;2024-02-21T09:55:18;9.40;99.90
13606;DHT22;6874;52.084;5.090;2024-02-21T09:57:44;9.30;99.90
13606;DHT22;6874;52.084;5.090;2024-02-21T10:00:10;9.40;99.90
13606;DHT22;6874;52.084;5.090;2024-02-21T10:02:36;9.40;99.90
13606;DHT22;6874;52.084;5.090;2024-02-21T10:05:02;9.40;99.90
13606;DHT22;6874;52.084;5.090;2024-02-21T10:07:30;9.40;99.90
13606;DHT22;6874;52.084;5.090;2024-02-21T10:10:05;9.40;99.90
13606;DHT22;6874;52.084;5.090;2024-02-21T10:12:31;9.50;99.90
13606;DHT22;6874;52.084;5.090;2024-02-21T10:15:04;9.50;99.90
13606;DHT22;6874;52.084;5.090;2024-02-21T10:17:30;9.40;99.90
13606;DHT22;6874;52.084;5.090;2024-02-21T10:20:02;9.50;99.90
13606;DHT22;6874;52.084;5.090;2024-02-21T10:22:31;9.50;99.90
13606;DHT22;6874;52.084;5.090;2024-02-21T10:25:07;9.60;99.90
13606;DHT22;6874;52.084;5.090;2024-02-21T10:27:33;9.60;99.90
13606;DHT22;6874;52.084;5.090;2024-02-21T10:29:59;9.60;99.90
13606;DHT22;6874;52.084;5.090;2024-02-21T10:32:24;9.60;99.90
13606;DHT22;6874;52.084;5.090;2024-02-21T10:35:01;9.70;99.90
13606;DHT22;6874;52.084;5.090;2024-02-21T10:37:27;9.60;99.90
13606;DHT22;6874;52.084;5.090;2024-02-21T10:39:53;9.70;99.90
13606;DHT22;6874;52.084;5.090;2024-02-21T10:42:21;9.70;99.90
13606;DHT22;6874;52.084;5.090;2024-02-21T10:44:51;9.70;99.90
13606;DHT22;6874;52.084;5.090;2024-02-21T10:47:22;9.80;99.90
13606;DHT22;6874;52.084;5.090;2024-02-21T10:49:54;9.80;99.90
13606;DHT22;6874;52.084;5.090;2024-02-21T10:55:03;9.80;99.90
13606;DHT22;6874;52.084;5.090;2024-02-21T10:57:31;9.80;99.90
13606;DHT22;6874;52.084;5.090;2024-02-21T10:59:59;9.90;99.90
13606;DHT22;6874;52.084;5.090;2024-02-21T11:02:26;9.90;99.90
13606;DHT22;6874;52.084;5.090;2024-02-21T11:04:54;9.90;99.90
13606;DHT22;6874;52.084;5.090;2024-02-21T11:07:20;9.90;99.90
13606;DHT22;6874;52.084;5.090;2024-02-21T11:09:53;9.90;99.90
13606;DHT22;6874;52.084;5.090;2024-02-21T11:12:22;9.90;99.90
13606;DHT22;6874;52.084;5.090;2024-02-21T11:14:48;9.90;99.90
13606;DHT22;6874;52.084;5.090;2024-02-21T11:17:18;10.00;99.90
13606;DHT22;6874;52.084;5.090;2024-02-21T11:19:43;9.90;99.90
13606;DHT22;6874;52.084;5.090;2024-02-21T11:22:19;9.90;99.90
13606;DHT22;6874;52.084;5.090;2024-02-21T11:24:47;10.00;99.90
13606;DHT22;6874;52.084;5.090;2024-02-21T11:27:15;9.90;99.90
13606;DHT22;6874;52.084;5.090;2024-02-21T11:29:45;9.90;99.90
13606;DHT22;6874;52.084;5.090;2024-02-21T11:32:13;10.00;99.90
13606;DHT22;6874;52.084;5.090;2024-02-21T11:34:40;9.90;99.90
13606;DHT22;6874;52.084;5.090;2024-02-21T11:37:15;9.90;99.90
13606;DHT22;6874;52.084;5.090;2024-02-21T11:39:41;9.90;99.90
13606;DHT22;6874;52.084;5.090;2024-02-21T11:42:07;9.90;99.90
13606;DHT22;6874;52.084;5.090;2024-02-21T11:44:35;9.90;99.90
13606;DHT22;6874;52.084;5.090;2024-02-21T11:47:03;9.90;99.90
13606;DHT22;6874;52.084;5.090;2024-02-21T11:49:29;9.90;99.90
13606;DHT22;6874;52.084;5.090;2024-02-21T11:51:59;9.90;99.90
13606;DHT22;6874;52.084;5.090;2024-02-21T11:54:26;9.90;99.90
13606;DHT22;6874;52.084;5.090;2024-02-21T11:56:52;10.00;99.90
13606;DHT22;6874;52.084;5.090;2024-02-21T11:59:17;10.00;99.90
13606;DHT22;6874;52.084;5.090;2024-02-21T12:01:43;10.00;99.90
13606;DHT22;6874;52.084;5.090;2024-02-21T12:04:08;10.00;99.90
13606;DHT22;6874;52.084;5.090;2024-02-21T12:06:34;10.00;99.90
13606;DHT22;6874;52.084;5.090;2024-02-21T12:08:59;10.00;99.90
13606;DHT22;6874;52.084;5.090;2024-02-21T12:11:26;10.20;99.90
13606;DHT22;6874;52.084;5.090;2024-02-21T12:14:04;10.10;99.90
13606;DHT22;6874;52.084;5.090;2024-02-21T12:16:33;10.20;99.90
13606;DHT22;6874;52.084;5.090;2024-02-21T12:19:00;10.20;99.90
13606;DHT22;6874;52.084;5.090;2024-02-21T12:21:27;10.20;99.90
13606;DHT22;6874;52.084;5.090;2024-02-21T12:23:57;10.20;99.90
13606;DHT22;6874;52.084;5.090;2024-02-21T12:26:22;10.20;99.90
13606;DHT22;6874;52.084;5.090;2024-02-21T12:28:48;10.20;99.90
13606;DHT22;6874;52.084;5.090;2024-02-21T12:31:14;10.20;99.90
13606;DHT22;6874;52.084;5.090;2024-02-21T12:33:39;10.20;99.90
13606;DHT22;6874;52.084;5.090;2024-02-21T12:36:05;10.20;99.90
13606;DHT22;6874;52.084;5.090;2024-02-21T12:38:31;10.30;99.90
13606;DHT22;6874;52.084;5.090;2024-02-21T12:40:57;10.30;99.90
13606;DHT22;6874;52.084;5.090;2024-02-21T12:43:23;10.30;99.90
13606;DHT22;6874;52.084;5.090;2024-02-21T12:45:48;10.30;99.90
13606;DHT22;6874;52.084;5.090;2024-02-21T12:48:14;10.40;99.90
13606;DHT22;6874;52.084;5.090;2024-02-21T12:50:47;10.40;99.90
13606;DHT22;6874;52.084;5.090;2024-02-21T12:53:13;10.40;99.90
13606;DHT22;6874;52.084;5.090;2024-02-21T12:55:41;10.40;99.90
13606;DHT22;6874;52.084;5.090;2024-02-21T12:58:06;10.40;99.90
13606;DHT22;6874;52.084;5.090;2024-02-21T13:00:32;10.40;99.90
13606;DHT22;6874;52.084;5.090;2024-02-21T13:02:58;10.40;99.90
13606;DHT22;6874;52.084;5.090;2024-02-21T13:05:24;10.40;99.90
13606;DHT22;6874;52.084;5.090;2024-02-21T13:07:49;10.40;99.90
13606;DHT22;6874;52.084;5.090;2024-02-21T13:10:15;10.40;99.90
13606;DHT22;6874;52.084;5.090;2024-02-21T13:12:40;10.40;99.90
13606;DHT22;6874;52.084;5.090;2024-02-21T13:15:06;10.40;99.90
13606;DHT22;6874;52.084;5.090;2024-02-21T13:17:32;10.40;99.90
13606;DHT22;6874;52.084;5.090;2024-02-21T13:19:58;10.40;99.90
13606;DHT22;6874;52.084;5.090;2024-02-21T13:22:24;10.40;99.90
13606;DHT22;6874;52.084;5.090;2024-02-21T13:24:52;10.40;99.90
13606;DHT22;6874;52.084;5.090;2024-02-21T13:27:17;10.40;99.90
13606;DHT22;6874;52.084;5.090;2024-02-21T13:29:43;10.40;99.90
13606;DHT22;6874;52.084;5.090;2024-02-21T13:32:08;10.40;99.90
13606;DHT22;6874;52.084;5.090;2024-02-21T13:34:34;10.40;99.90
13606;DHT22;6874;52.084;5.090;2024-02-21T13:37:00;10.40;99.90
13606;DHT22;6874;52.084;5.090;2024-02-21T13:39:25;10.40;99.90
13606;DHT22;6874;52.084;5.090;2024-02-21T13:41:51;10.40;99.90
13606;DHT22;6874;52.084;5.090;2024-02-21T13:44:16;10.40;99.90
13606;DHT22;6874;52.084;5.090;2024-02-21T13:46:42;10.40;99.90
13606;DHT22;6874;52.084;5.090;2024-02-21T13:49:08;10.40;99.90
13606;DHT22;6874;52.084;5.090;2024-02-21T13:51:34;10.40;99.90
13606;DHT22;6874;52.084;5.090;2024-02-21T13:54:02;10.40;99.90
13606;DHT22;6874;52.084;5.090;2024-02-21T13:56:28;10.30;99.90
13606;DHT22;6874;52.084;5.090;2024-02-21T13:58:54;10.30;99.90
13606;DHT22;6874;52.084;5.090;2024-02-21T14:01:19;10.30;99.90
13606;DHT22;6874;52.084;5.090;2024-02-21T14:03:45;10.30;99.90
13606;DHT22;6874;52.084;5.090;2024-02-21T14:06:10;10.30;99.90
13606;DHT22;6874;52.084;5.090;2024-02-21T14:08:37;10.30;99.90
13606;DHT22;6874;52.084;5.090;2024-02-21T14:11:05;10.30;99.90
13606;DHT22;6874;52.084;5.090;2024-02-21T14:13:31;10.30;99.90
13606;DHT22;6874;52.084;5.090;2024-02-21T14:15:57;10.30;99.90
13606;DHT22;6874;52.084;5.090;2024-02-21T14:18:22;10.30;99.90
13606;DHT22;6874;52.084;5.090;2024-02-21T14:20:48;10.30;99.90
13606;DHT22;6874;52.084;5.090;2024-02-21T14:23:13;10.30;99.90
13606;DHT22;6874;52.084;5.090;2024-02-21T14:25:39;10.30;99.90
13606;DHT22;6874;52.084;5.090;2024-02-21T14:28:05;10.30;99.90
13606;DHT22;6874;52.084;5.090;2024-02-21T14:30:31;10.20;99.90
13606;DHT22;6874;52.084;5.090;2024-02-21T14:32:56;10.30;99.90
13606;DHT22;6874;52.084;5.090;2024-02-21T14:35:22;10.20;99.90
13606;DHT22;6874;52.084;5.090;2024-02-21T14:37:47;10.30;99.90
13606;DHT22;6874;52.084;5.090;2024-02-21T14:40:17;10.30;99.90
13606;DHT22;6874;52.084;5.090;2024-02-21T14:42:44;10.30;99.90
13606;DHT22;6874;52.084;5.090;2024-02-21T14:45:10;10.20;99.90
13606;DHT22;6874;52.084;5.090;2024-02-21T14:47:35;10.20;99.90
13606;DHT22;6874;52.084;5.090;2024-02-21T14:50:02;10.20;99.90
13606;DHT22;6874;52.084;5.090;2024-02-21T14:52:29;10.20;99.90
13606;DHT22;6874;52.084;5.090;2024-02-21T14:54:55;10.20;99.90
13606;DHT22;6874;52.084;5.090;2024-02-21T14:57:21;10.20;99.90
13606;DHT22;6874;52.084;5.090;2024-02-21T14:59:47;10.20;99.90
13606;DHT22;6874;52.084;5.090;2024-02-21T15:02:15;10.20;99.90
13606;DHT22;6874;52.084;5.090;2024-02-21T15:04:41;10.20;99.90
13606;DHT22;6874;52.084;5.090;2024-02-21T15:07:06;10.20;99.90
13606;DHT22;6874;52.084;5.090;2024-02-21T15:09:32;10.20;99.90
13606;DHT22;6874;52.084;5.090;2024-02-21T15:11:58;10.20;99.90
13606;DHT22;6874;52.084;5.090;2024-02-21T15:14:24;10.20;99.90
13606;DHT22;6874;52.084;5.090;2024-02-21T15:16:49;10.10;99.90
13606;DHT22;6874;52.084;5.090;2024-02-21T15:19:15;10.10;99.90
13606;DHT22;6874;52.084;5.090;2024-02-21T15:21:41;10.10;99.90
13606;DHT22;6874;52.084;5.090;2024-02-21T15:24:06;10.20;99.90
13606;DHT22;6874;52.084;5.090;2024-02-21T15:26:32;10.10;99.90
13606;DHT22;6874;52.084;5.090;2024-02-21T15:28:57;10.10;99.90
13606;DHT22;6874;52.084;5.090;2024-02-21T15:31:23;10.10;99.90
13606;DHT22;6874;52.084;5.090;2024-02-21T15:33:50;10.10;99.90
13606;DHT22;6874;52.084;5.090;2024-02-21T15:36:15;10.10;99.90
13606;DHT22;6874;52.084;5.090;2024-02-21T15:38:41;10.10;99.90
13606;DHT22;6874;52.084;5.090;2024-02-21T15:41:07;10.00;99.90
13606;DHT22;6874;52.084;5.090;2024-02-21T15:43:32;10.10;99.90
13606;DHT22;6874;52.084;5.090;2024-02-21T15:45:58;10.00;99.90
13606;DHT22;6874;52.084;5.090;2024-02-21T15:48:24;10.00;99.90
13606;DHT22;6874;52.084;5.090;2024-02-21T15:50:49;10.00;99.90
13606;DHT22;6874;52.084;5.090;2024-02-21T15:53:15;10.00;99.90
13606;DHT22;6874;52.084;5.090;2024-02-21T15:55:40;10.00;99.90